Terminal Aerodrome Forecast
Issued by NWS

Home | Current Version | Previous Version | Text Only | Print | Product List | Glossary On
Versions: 1 2 3 4 5 6 7 8 9 10 11 12 13 14 15
386
FTUS46 KSEW 231722
TAFOLM
TAF
KOLM 231722Z 2318/2418 18010KT P6SM OVC080
     FM232200 19013KT 3SM -SN BR OVC025
     FM240200 20010KT P6SM VCSH OVC025
     FM240700 21014G20KT 3SM -SHRA BR OVC012=

USA.gov is the U.S. government's official web portal to all federal, state and local government web resources and services.